Dallas, Wisconsin
Current Conditions -  °F | °C
As of 3:35 PM on Thursday 27 Nov 2014 (Local Time) from KY23 Reporting Station
Clear Clear  
Wind Chill:   Ceiling: Unl
Heat Index:   Visibility: 10mi
Dew Point: -5°   Wind: 0mph
Humidity: 55%   Direction: NA
Pressure: 30.41"   Gusts: NA
Location:  45.26°N, 91.81°W
Report Text: KY23 272135Z AUTO 00000KT 10SM CLR M13/M21 A3041 RMK AO2 T11321206
Loading
Personal Weather Stations






























Interactive Weather Map New forecast layout! Learn more

10-Day Weather Forecast

Advertisements
Track Severe Weather on mobile